Peter R. Cresswell — VCBZ — position and weather

sailwx.info

Track history (hours):
 
Tides and Currents Weather Stations Pressure Air Temp Water Temp Dewpoint Dewpoint Depression Visibility Wind Speed Wind Dir Waves Ship Positions

Peter R. Cresswell

ex Algowest

Last reported at 2014-Aug-20 03:33 UTC. Time now 2014-Aug-20 06:52 UTC.
Position N 42°54' W 079°15'.

Length 219.2 m; beam 23.2 m; draft 8.7 m.

Type: Ship. MMSI: 316001697.

Date/timePositionNaut miles runAvg speedWind from/ knotsBaromVisibWave heightAir tempDewpointWater temp
2014-Aug-20 03:33N 42°54' W 079°15'0 0.4
2014-Aug-20 02:34N 42°53' W 079°15'  
2014-Aug-16 07:33N 43°49' W 078°29'7 7.1
2014-Aug-16 06:34N 43°51' W 078°38'2 2.0
2014-Aug-16 05:26N 43°52' W 078°41'0 0.0
2014-Aug-16 04:27N 43°52' W 078°41'0 0.0
2014-Aug-16 00:29N 43°52' W 078°41'0 0.0
2014-Aug-15 23:31N 43°52' W 078°41'0 0.0
2014-Aug-15 22:33N 43°52' W 078°41'0 0.0
2014-Aug-15 21:34N 43°52' W 078°41'0 0.0
2014-Aug-15 20:32N 43°52' W 078°41'0 0.0
2014-Aug-15 14:10N 43°52' W 078°41'0 0.0
2014-Aug-15 13:32N 43°52' W 078°41'0 0.0
2014-Aug-15 12:33N 43°52' W 078°41'0 0.0
2014-Aug-15 11:34N 43°52' W 078°41'0 0.0
2014-Aug-15 10:12N 43°52' W 078°41'0 0.0
2014-Aug-15 08:27N 43°52' W 078°41'0 0.0
2014-Aug-15 07:16N 43°52' W 078°41'0 0.0
2014-Aug-15 06:33N 43°52' W 078°41'0 0.0
2014-Aug-15 05:31N 43°52' W 078°41'0 0.0
2014-Aug-15 03:34N 43°52' W 078°41'0 0.0
2014-Aug-15 02:34N 43°52' W 078°41'0 0.0
2014-Aug-15 01:34N 43°52' W 078°41'0 0.0
2014-Aug-15 00:34N 43°52' W 078°41'2 2.0
2014-Aug-14 23:34N 43°51' W 078°40'1211.7
2014-Aug-14 22:34N 43°44' W 078°53'1211.7
2014-Aug-14 21:34N 43°37' W 079°07'4 4.3
2014-Aug-14 20:34N 43°35' W 079°12'3 2.8
2014-Aug-14 19:33N 43°34' W 079°15'26 1.0
2014-Aug-13 17:19N 43°07' W 079°12'236 5.1
2014-Aug-11 19:18N 45°37' W 083°27'810.6
2014-Aug-11 18:33N 45°42' W 083°35'1110.7
2014-Aug-11 17:33N 45°50' W 083°45'1010.2
2014-Aug-11 16:33N 45°59' W 083°53'9 9.1
2014-Aug-11 15:33N 46°06' W 084°01'9 8.8
2014-Aug-11 14:33N 46°13' W 084°09'19 5.5
2014-Aug-11 11:03N 46°30' W 084°21'2 2.7
2014-Aug-11 10:29N 46°30' W 084°24'8 7.6
2014-Aug-11 09:29N 46°28' W 084°34'1110.6
2014-Aug-11 08:28N 46°36' W 084°44'1010.9
2014-Aug-11 07:33N 46°45' W 084°53'1210.8
2014-Aug-11 06:24N 46°52' W 085°08'  
Track history (hours):
 
Tides and Currents Weather Stations Pressure Air Temp Water Temp Dewpoint Dewpoint Depression Visibility Wind Speed Wind Dir Waves Ship Positions

Peter R. Cresswell

ex Algowest

Last reported at 2014-Aug-20 03:33 UTC. Time now 2014-Aug-20 06:52 UTC.
Position N 42°54' W 079°15'.

Length 219.2 m; beam 23.2 m; draft 8.7 m.

Type: Ship. MMSI: 316001697.

Date/timePositionNaut miles runAvg speedWind from/ knotsBaromVisibWave heightAir tempDewpointWater temp
2014-Aug-20 03:33N 42°54' W 079°15'0 0.4
2014-Aug-20 02:34N 42°53' W 079°15'  
2014-Aug-16 07:33N 43°49' W 078°29'7 7.1
2014-Aug-16 06:34N 43°51' W 078°38'2 2.0
2014-Aug-16 05:26N 43°52' W 078°41'0 0.0
2014-Aug-16 04:27N 43°52' W 078°41'0 0.0
2014-Aug-16 00:29N 43°52' W 078°41'0 0.0
2014-Aug-15 23:31N 43°52' W 078°41'0 0.0
2014-Aug-15 22:33N 43°52' W 078°41'0 0.0
2014-Aug-15 21:34N 43°52' W 078°41'0 0.0
2014-Aug-15 20:32N 43°52' W 078°41'0 0.0
2014-Aug-15 14:10N 43°52' W 078°41'0 0.0
2014-Aug-15 13:32N 43°52' W 078°41'0 0.0
2014-Aug-15 12:33N 43°52' W 078°41'0 0.0
2014-Aug-15 11:34N 43°52' W 078°41'0 0.0
2014-Aug-15 10:12N 43°52' W 078°41'0 0.0
2014-Aug-15 08:27N 43°52' W 078°41'0 0.0
2014-Aug-15 07:16N 43°52' W 078°41'0 0.0
2014-Aug-15 06:33N 43°52' W 078°41'0 0.0
2014-Aug-15 05:31N 43°52' W 078°41'0 0.0
2014-Aug-15 03:34N 43°52' W 078°41'0 0.0
2014-Aug-15 02:34N 43°52' W 078°41'0 0.0
2014-Aug-15 01:34N 43°52' W 078°41'0 0.0
2014-Aug-15 00:34N 43°52' W 078°41'2 2.0
2014-Aug-14 23:34N 43°51' W 078°40'1211.7
2014-Aug-14 22:34N 43°44' W 078°53'1211.7
2014-Aug-14 21:34N 43°37' W 079°07'4 4.3
2014-Aug-14 20:34N 43°35' W 079°12'3 2.8
2014-Aug-14 19:33N 43°34' W 079°15'26 1.0
2014-Aug-13 17:19N 43°07' W 079°12'236 5.1
2014-Aug-11 19:18N 45°37' W 083°27'810.6
2014-Aug-11 18:33N 45°42' W 083°35'1110.7
2014-Aug-11 17:33N 45°50' W 083°45'1010.2
2014-Aug-11 16:33N 45°59' W 083°53'9 9.1
2014-Aug-11 15:33N 46°06' W 084°01'9 8.8
2014-Aug-11 14:33N 46°13' W 084°09'19 5.5
2014-Aug-11 11:03N 46°30' W 084°21'2 2.7
2014-Aug-11 10:29N 46°30' W 084°24'8 7.6
2014-Aug-11 09:29N 46°28' W 084°34'1110.6
2014-Aug-11 08:28N 46°36' W 084°44'1010.9
2014-Aug-11 07:33N 46°45' W 084°53'1210.8
2014-Aug-11 06:24N 46°52' W 085°08'  

Dump ship's entire track history